sensor_id;sensor_type;location;lat;lon;timestamp;P1;durP1;ratioP1;P2;durP2;ratioP2
49131;SDS011;35149;51.196;6.204;2022-07-23T00:01:42;5.50;;;4.15;;
49131;SDS011;35149;51.196;6.204;2022-07-23T00:04:09;5.05;;;3.72;;
49131;SDS011;35149;51.196;6.204;2022-07-23T00:06:38;4.85;;;3.80;;
49131;SDS011;35149;51.196;6.204;2022-07-23T00:09:06;4.65;;;3.75;;
49131;SDS011;35149;51.196;6.204;2022-07-23T00:11:32;5.95;;;3.75;;
49131;SDS011;35149;51.196;6.204;2022-07-23T00:14:03;4.63;;;3.75;;
49131;SDS011;35149;51.196;6.204;2022-07-23T00:16:30;4.60;;;3.83;;
49131;SDS011;35149;51.196;6.204;2022-07-23T00:18:57;3.90;;;3.50;;
49131;SDS011;35149;51.196;6.204;2022-07-23T00:21:30;4.05;;;3.63;;
49131;SDS011;35149;51.196;6.204;2022-07-23T00:23:56;4.63;;;3.17;;
49131;SDS011;35149;51.196;6.204;2022-07-23T00:26:23;4.00;;;3.40;;
49131;SDS011;35149;51.196;6.204;2022-07-23T00:28:54;4.35;;;3.60;;
49131;SDS011;35149;51.196;6.204;2022-07-23T00:31:22;5.03;;;4.38;;
49131;SDS011;35149;51.196;6.204;2022-07-23T00:33:49;5.10;;;3.50;;
49131;SDS011;35149;51.196;6.204;2022-07-23T00:36:18;4.38;;;3.45;;
49131;SDS011;35149;51.196;6.204;2022-07-23T00:38:47;4.30;;;3.53;;
49131;SDS011;35149;51.196;6.204;2022-07-23T00:41:19;3.13;;;2.90;;
49131;SDS011;35149;51.196;6.204;2022-07-23T00:43:46;3.28;;;2.97;;
49131;SDS011;35149;51.196;6.204;2022-07-23T00:46:13;3.92;;;3.13;;
49131;SDS011;35149;51.196;6.204;2022-07-23T00:48:47;3.67;;;3.13;;
49131;SDS011;35149;51.196;6.204;2022-07-23T00:51:16;3.70;;;3.38;;
49131;SDS011;35149;51.196;6.204;2022-07-23T00:53:45;4.57;;;4.03;;
49131;SDS011;35149;51.196;6.204;2022-07-23T00:56:17;4.10;;;3.17;;
49131;SDS011;35149;51.196;6.204;2022-07-23T00:58:46;3.63;;;3.33;;
49131;SDS011;35149;51.196;6.204;2022-07-23T01:01:15;3.65;;;3.35;;
49131;SDS011;35149;51.196;6.204;2022-07-23T01:03:48;4.00;;;3.40;;
49131;SDS011;35149;51.196;6.204;2022-07-23T01:06:14;3.85;;;3.53;;
49131;SDS011;35149;51.196;6.204;2022-07-23T01:08:51;3.55;;;3.25;;
49131;SDS011;35149;51.196;6.204;2022-07-23T01:11:29;5.40;;;2.83;;
49131;SDS011;35149;51.196;6.204;2022-07-23T01:13:57;3.47;;;3.03;;
49131;SDS011;35149;51.196;6.204;2022-07-23T01:16:24;3.65;;;3.15;;
49131;SDS011;35149;51.196;6.204;2022-07-23T01:18:53;4.10;;;3.58;;
49131;SDS011;35149;51.196;6.204;2022-07-23T01:21:28;3.65;;;3.35;;
49131;SDS011;35149;51.196;6.204;2022-07-23T01:23:59;8.27;;;4.10;;
49131;SDS011;35149;51.196;6.204;2022-07-23T01:26:29;4.32;;;3.33;;
49131;SDS011;35149;51.196;6.204;2022-07-23T01:28:58;4.07;;;2.97;;
49131;SDS011;35149;51.196;6.204;2022-07-23T01:31:29;3.80;;;3.28;;
49131;SDS011;35149;51.196;6.204;2022-07-23T01:34:01;3.67;;;3.38;;
49131;SDS011;35149;51.196;6.204;2022-07-23T01:36:33;3.33;;;2.90;;
49131;SDS011;35149;51.196;6.204;2022-07-23T01:39:03;4.68;;;3.80;;
49131;SDS011;35149;51.196;6.204;2022-07-23T01:41:33;3.67;;;3.38;;
49131;SDS011;35149;51.196;6.204;2022-07-23T01:44:02;4.07;;;3.28;;
49131;SDS011;35149;51.196;6.204;2022-07-23T01:46:31;3.60;;;3.30;;
49131;SDS011;35149;51.196;6.204;2022-07-23T01:48:59;3.85;;;3.53;;
49131;SDS011;35149;51.196;6.204;2022-07-23T01:51:56;4.00;;;3.13;;
49131;SDS011;35149;51.196;6.204;2022-07-23T01:54:34;4.28;;;3.45;;
49131;SDS011;35149;51.196;6.204;2022-07-23T01:57:05;4.40;;;3.42;;
49131;SDS011;35149;51.196;6.204;2022-07-23T01:59:34;3.90;;;3.35;;
49131;SDS011;35149;51.196;6.204;2022-07-23T02:02:09;3.92;;;3.33;;
49131;SDS011;35149;51.196;6.204;2022-07-23T02:04:42;3.33;;;2.90;;
49131;SDS011;35149;51.196;6.204;2022-07-23T02:07:12;3.58;;;2.92;;
49131;SDS011;35149;51.196;6.204;2022-07-23T02:09:39;3.50;;;3.00;;
49131;SDS011;35149;51.196;6.204;2022-07-23T02:12:06;4.55;;;3.20;;
49131;SDS011;35149;51.196;6.204;2022-07-23T02:14:33;4.05;;;3.35;;
49131;SDS011;35149;51.196;6.204;2022-07-23T02:17:04;3.05;;;2.85;;
49131;SDS011;35149;51.196;6.204;2022-07-23T02:19:31;3.65;;;3.33;;
49131;SDS011;35149;51.196;6.204;2022-07-23T02:21:58;4.35;;;2.92;;
49131;SDS011;35149;51.196;6.204;2022-07-23T02:24:24;4.22;;;3.83;;
49131;SDS011;35149;51.196;6.204;2022-07-23T02:26:54;5.05;;;3.28;;
49131;SDS011;35149;51.196;6.204;2022-07-23T02:29:23;3.65;;;3.33;;
49131;SDS011;35149;51.196;6.204;2022-07-23T02:31:52;4.93;;;4.53;;
49131;SDS011;35149;51.196;6.204;2022-07-23T02:34:22;3.50;;;3.20;;
49131;SDS011;35149;51.196;6.204;2022-07-23T02:36:54;6.70;;;3.70;;
49131;SDS011;35149;51.196;6.204;2022-07-23T02:39:22;4.15;;;3.65;;
49131;SDS011;35149;51.196;6.204;2022-07-23T02:41:49;6.28;;;3.72;;
49131;SDS011;35149;51.196;6.204;2022-07-23T02:44:20;4.18;;;3.35;;
49131;SDS011;35149;51.196;6.204;2022-07-23T02:46:50;3.15;;;2.90;;
49131;SDS011;35149;51.196;6.204;2022-07-23T02:49:19;4.15;;;3.22;;
49131;SDS011;35149;51.196;6.204;2022-07-23T02:51:51;4.25;;;3.22;;
49131;SDS011;35149;51.196;6.204;2022-07-23T02:54:18;4.68;;;2.97;;
49131;SDS011;35149;51.196;6.204;2022-07-23T02:56:45;3.03;;;2.78;;
49131;SDS011;35149;51.196;6.204;2022-07-23T02:59:13;5.20;;;3.00;;
49131;SDS011;35149;51.196;6.204;2022-07-23T03:01:43;5.15;;;2.83;;
49131;SDS011;35149;51.196;6.204;2022-07-23T03:04:10;3.17;;;2.72;;
49131;SDS011;35149;51.196;6.204;2022-07-23T03:06:41;4.47;;;3.22;;
49131;SDS011;35149;51.196;6.204;2022-07-23T03:09:07;3.20;;;2.78;;
49131;SDS011;35149;51.196;6.204;2022-07-23T03:11:38;3.83;;;3.22;;
49131;SDS011;35149;51.196;6.204;2022-07-23T03:14:07;3.92;;;2.88;;
49131;SDS011;35149;51.196;6.204;2022-07-23T03:16:35;3.45;;;3.15;;
49131;SDS011;35149;51.196;6.204;2022-07-23T03:19:04;4.43;;;2.88;;
49131;SDS011;35149;51.196;6.204;2022-07-23T03:21:32;4.38;;;2.95;;
49131;SDS011;35149;51.196;6.204;2022-07-23T03:24:00;4.82;;;3.08;;
49131;SDS011;35149;51.196;6.204;2022-07-23T03:26:30;3.00;;;2.70;;
49131;SDS011;35149;51.196;6.204;2022-07-23T03:28:57;3.22;;;2.63;;
49131;SDS011;35149;51.196;6.204;2022-07-23T03:31:27;5.35;;;3.45;;
49131;SDS011;35149;51.196;6.204;2022-07-23T03:33:57;5.60;;;3.20;;
49131;SDS011;35149;51.196;6.204;2022-07-23T03:36:24;3.53;;;2.72;;
49131;SDS011;35149;51.196;6.204;2022-07-23T03:38:58;4.03;;;2.78;;
49131;SDS011;35149;51.196;6.204;2022-07-23T03:41:29;3.10;;;2.77;;
49131;SDS011;35149;51.196;6.204;2022-07-23T03:43:56;3.42;;;2.75;;
49131;SDS011;35149;51.196;6.204;2022-07-23T03:46:25;2.97;;;2.70;;
49131;SDS011;35149;51.196;6.204;2022-07-23T03:48:51;5.20;;;2.80;;
49131;SDS011;35149;51.196;6.204;2022-07-23T03:51:24;4.20;;;2.72;;
49131;SDS011;35149;51.196;6.204;2022-07-23T03:53:52;3.65;;;3.25;;
49131;SDS011;35149;51.196;6.204;2022-07-23T03:56:25;3.45;;;3.13;;
49131;SDS011;35149;51.196;6.204;2022-07-23T03:58:52;4.40;;;2.80;;
49131;SDS011;35149;51.196;6.204;2022-07-23T04:01:19;3.85;;;3.15;;
49131;SDS011;35149;51.196;6.204;2022-07-23T04:03:48;4.53;;;2.85;;
49131;SDS011;35149;51.196;6.204;2022-07-23T04:06:16;5.38;;;2.90;;
49131;SDS011;35149;51.196;6.204;2022-07-23T04:08:46;4.10;;;2.95;;
49131;SDS011;35149;51.196;6.204;2022-07-23T04:11:13;2.92;;;2.60;;
49131;SDS011;35149;51.196;6.204;2022-07-23T04:13:40;5.82;;;2.65;;
49131;SDS011;35149;51.196;6.204;2022-07-23T04:16:06;5.90;;;2.72;;
49131;SDS011;35149;51.196;6.204;2022-07-23T04:18:37;3.33;;;2.45;;
49131;SDS011;35149;51.196;6.204;2022-07-23T04:21:14;3.60;;;2.70;;
49131;SDS011;35149;51.196;6.204;2022-07-23T04:23:46;5.30;;;3.20;;
49131;SDS011;35149;51.196;6.204;2022-07-23T04:26:14;5.68;;;3.47;;
49131;SDS011;35149;51.196;6.204;2022-07-23T04:28:44;4.07;;;2.67;;
49131;SDS011;35149;51.196;6.204;2022-07-23T04:31:12;7.32;;;2.90;;
49131;SDS011;35149;51.196;6.204;2022-07-23T04:33:44;2.95;;;2.55;;
49131;SDS011;35149;51.196;6.204;2022-07-23T04:36:10;4.95;;;2.80;;
49131;SDS011;35149;51.196;6.204;2022-07-23T04:38:39;4.13;;;2.83;;
49131;SDS011;35149;51.196;6.204;2022-07-23T04:41:07;7.82;;;3.80;;
49131;SDS011;35149;51.196;6.204;2022-07-23T04:43:36;5.47;;;3.38;;
49131;SDS011;35149;51.196;6.204;2022-07-23T04:46:03;9.32;;;3.58;;
49131;SDS011;35149;51.196;6.204;2022-07-23T04:48:40;3.65;;;3.22;;
49131;SDS011;35149;51.196;6.204;2022-07-23T04:51:08;4.53;;;3.50;;
49131;SDS011;35149;51.196;6.204;2022-07-23T04:53:38;4.95;;;3.20;;
49131;SDS011;35149;51.196;6.204;2022-07-23T04:56:07;7.40;;;3.08;;
49131;SDS011;35149;51.196;6.204;2022-07-23T04:58:34;4.15;;;3.38;;
49131;SDS011;35149;51.196;6.204;2022-07-23T05:01:01;4.93;;;4.10;;
49131;SDS011;35149;51.196;6.204;2022-07-23T05:03:31;8.35;;;4.20;;
49131;SDS011;35149;51.196;6.204;2022-07-23T05:06:00;5.72;;;4.30;;
49131;SDS011;35149;51.196;6.204;2022-07-23T05:08:31;8.23;;;5.30;;
49131;SDS011;35149;51.196;6.204;2022-07-23T05:10:58;7.88;;;5.25;;
49131;SDS011;35149;51.196;6.204;2022-07-23T05:13:28;9.32;;;5.07;;
49131;SDS011;35149;51.196;6.204;2022-07-23T05:15:55;8.32;;;6.20;;
49131;SDS011;35149;51.196;6.204;2022-07-23T05:18:23;6.68;;;5.32;;
49131;SDS011;35149;51.196;6.204;2022-07-23T05:20:52;8.77;;;5.20;;
49131;SDS011;35149;51.196;6.204;2022-07-23T05:23:22;5.85;;;4.93;;
49131;SDS011;35149;51.196;6.204;2022-07-23T05:25:49;5.25;;;4.75;;
49131;SDS011;35149;51.196;6.204;2022-07-23T05:28:18;6.00;;;5.35;;
49131;SDS011;35149;51.196;6.204;2022-07-23T05:30:51;6.25;;;5.63;;
49131;SDS011;35149;51.196;6.204;2022-07-23T05:35:52;6.43;;;4.90;;
49131;SDS011;35149;51.196;6.204;2022-07-23T05:38:28;5.45;;;4.88;;
49131;SDS011;35149;51.196;6.204;2022-07-23T05:40:59;7.85;;;6.13;;
49131;SDS011;35149;51.196;6.204;2022-07-23T05:43:28;7.05;;;5.85;;
49131;SDS011;35149;51.196;6.204;2022-07-23T05:46:00;6.80;;;5.70;;
49131;SDS011;35149;51.196;6.204;2022-07-23T05:48:34;8.52;;;5.97;;
49131;SDS011;35149;51.196;6.204;2022-07-23T05:51:06;7.55;;;5.45;;
49131;SDS011;35149;51.196;6.204;2022-07-23T05:53:34;5.80;;;5.28;;
49131;SDS011;35149;51.196;6.204;2022-07-23T05:56:08;5.85;;;5.03;;
49131;SDS011;35149;51.196;6.204;2022-07-23T05:58:35;9.52;;;5.65;;
49131;SDS011;35149;51.196;6.204;2022-07-23T06:01:08;8.30;;;5.60;;
49131;SDS011;35149;51.196;6.204;2022-07-23T06:03:43;7.97;;;5.97;;
49131;SDS011;35149;51.196;6.204;2022-07-23T06:06:14;6.87;;;5.97;;
49131;SDS011;35149;51.196;6.204;2022-07-23T06:08:42;7.90;;;6.18;;
49131;SDS011;35149;51.196;6.204;2022-07-23T06:11:13;6.32;;;5.72;;
49131;SDS011;35149;51.196;6.204;2022-07-23T06:13:39;8.45;;;5.53;;
49131;SDS011;35149;51.196;6.204;2022-07-23T06:16:06;9.90;;;6.78;;
49131;SDS011;35149;51.196;6.204;2022-07-23T06:18:33;7.15;;;5.97;;
49131;SDS011;35149;51.196;6.204;2022-07-23T06:21:00;7.85;;;6.90;;
49131;SDS011;35149;51.196;6.204;2022-07-23T06:23:26;8.07;;;6.47;;
49131;SDS011;35149;51.196;6.204;2022-07-23T06:25:53;8.25;;;6.03;;
49131;SDS011;35149;51.196;6.204;2022-07-23T06:28:21;8.10;;;7.13;;
49131;SDS011;35149;51.196;6.204;2022-07-23T06:30:49;7.07;;;6.38;;
49131;SDS011;35149;51.196;6.204;2022-07-23T06:33:23;7.82;;;6.72;;
49131;SDS011;35149;51.196;6.204;2022-07-23T06:35:49;10.65;;;6.45;;
49131;SDS011;35149;51.196;6.204;2022-07-23T06:38:16;7.57;;;6.88;;
49131;SDS011;35149;51.196;6.204;2022-07-23T06:40:44;8.13;;;6.28;;
49131;SDS011;35149;51.196;6.204;2022-07-23T06:43:12;8.55;;;7.40;;
49131;SDS011;35149;51.196;6.204;2022-07-23T06:45:45;10.07;;;7.30;;
49131;SDS011;35149;51.196;6.204;2022-07-23T06:48:14;11.82;;;6.90;;
49131;SDS011;35149;51.196;6.204;2022-07-23T06:50:41;8.10;;;7.05;;
49131;SDS011;35149;51.196;6.204;2022-07-23T06:53:10;7.90;;;7.20;;
49131;SDS011;35149;51.196;6.204;2022-07-23T06:55:40;12.18;;;8.60;;
49131;SDS011;35149;51.196;6.204;2022-07-23T06:58:11;8.00;;;7.22;;
49131;SDS011;35149;51.196;6.204;2022-07-23T07:00:38;9.02;;;7.70;;
49131;SDS011;35149;51.196;6.204;2022-07-23T07:03:09;9.77;;;8.13;;
49131;SDS011;35149;51.196;6.204;2022-07-23T07:05:36;10.27;;;8.35;;
49131;SDS011;35149;51.196;6.204;2022-07-23T07:08:05;8.68;;;7.70;;
49131;SDS011;35149;51.196;6.204;2022-07-23T07:10:36;10.13;;;8.15;;
49131;SDS011;35149;51.196;6.204;2022-07-23T07:13:02;10.45;;;8.55;;
49131;SDS011;35149;51.196;6.204;2022-07-23T07:15:36;13.05;;;9.93;;
49131;SDS011;35149;51.196;6.204;2022-07-23T07:18:06;11.32;;;8.77;;
49131;SDS011;35149;51.196;6.204;2022-07-23T07:20:33;10.05;;;8.70;;
49131;SDS011;35149;51.196;6.204;2022-07-23T07:23:00;11.30;;;8.07;;
49131;SDS011;35149;51.196;6.204;2022-07-23T07:25:26;11.13;;;7.93;;
49131;SDS011;35149;51.196;6.204;2022-07-23T07:27:53;9.13;;;7.70;;
49131;SDS011;35149;51.196;6.204;2022-07-23T07:30:20;13.23;;;9.23;;
49131;SDS011;35149;51.196;6.204;2022-07-23T07:32:47;10.75;;;8.88;;
49131;SDS011;35149;51.196;6.204;2022-07-23T07:35:22;10.75;;;8.25;;
49131;SDS011;35149;51.196;6.204;2022-07-23T07:37:51;10.95;;;8.27;;
49131;SDS011;35149;51.196;6.204;2022-07-23T07:40:18;12.57;;;8.43;;
49131;SDS011;35149;51.196;6.204;2022-07-23T07:42:46;11.90;;;8.23;;
49131;SDS011;35149;51.196;6.204;2022-07-23T07:45:13;9.15;;;8.07;;
49131;SDS011;35149;51.196;6.204;2022-07-23T07:47:41;12.77;;;8.23;;
49131;SDS011;35149;51.196;6.204;2022-07-23T07:50:08;11.18;;;7.82;;
49131;SDS011;35149;51.196;6.204;2022-07-23T07:52:38;10.27;;;7.60;;
49131;SDS011;35149;51.196;6.204;2022-07-23T07:55:07;8.25;;;6.78;;
49131;SDS011;35149;51.196;6.204;2022-07-23T08:00:05;10.30;;;6.85;;
49131;SDS011;35149;51.196;6.204;2022-07-23T08:02:40;8.55;;;7.53;;
49131;SDS011;35149;51.196;6.204;2022-07-23T08:05:07;10.00;;;6.10;;
49131;SDS011;35149;51.196;6.204;2022-07-23T08:07:35;8.85;;;6.10;;
49131;SDS011;35149;51.196;6.204;2022-07-23T08:10:03;10.98;;;7.32;;
49131;SDS011;35149;51.196;6.204;2022-07-23T08:15:14;9.45;;;6.70;;
49131;SDS011;35149;51.196;6.204;2022-07-23T08:17:43;7.53;;;6.68;;
49131;SDS011;35149;51.196;6.204;2022-07-23T08:20:11;10.00;;;6.68;;
49131;SDS011;35149;51.196;6.204;2022-07-23T08:25:20;6.72;;;6.13;;
49131;SDS011;35149;51.196;6.204;2022-07-23T08:27:48;6.15;;;5.53;;
49131;SDS011;35149;51.196;6.204;2022-07-23T08:30:16;5.35;;;4.85;;
49131;SDS011;35149;51.196;6.204;2022-07-23T08:32:50;6.30;;;5.20;;
49131;SDS011;35149;51.196;6.204;2022-07-23T08:35:26;7.45;;;4.90;;
49131;SDS011;35149;51.196;6.204;2022-07-23T08:38:01;6.10;;;4.85;;
49131;SDS011;35149;51.196;6.204;2022-07-23T08:40:30;6.60;;;4.50;;
49131;SDS011;35149;51.196;6.204;2022-07-23T08:42:59;5.18;;;4.57;;
49131;SDS011;35149;51.196;6.204;2022-07-23T08:45:27;6.57;;;4.88;;
49131;SDS011;35149;51.196;6.204;2022-07-23T08:47:55;5.57;;;4.82;;
49131;SDS011;35149;51.196;6.204;2022-07-23T08:50:26;5.30;;;4.05;;
49131;SDS011;35149;51.196;6.204;2022-07-23T08:52:53;5.97;;;4.57;;
49131;SDS011;35149;51.196;6.204;2022-07-23T08:55:21;5.80;;;4.03;;
49131;SDS011;35149;51.196;6.204;2022-07-23T08:57:49;4.97;;;4.45;;
49131;SDS011;35149;51.196;6.204;2022-07-23T09:00:18;6.95;;;4.80;;
49131;SDS011;35149;51.196;6.204;2022-07-23T09:02:46;6.10;;;4.80;;
49131;SDS011;35149;51.196;6.204;2022-07-23T09:05:14;4.75;;;4.30;;
49131;SDS011;35149;51.196;6.204;2022-07-23T09:11:07;4.53;;;4.07;;
49131;SDS011;35149;51.196;6.204;2022-07-23T09:13:39;4.72;;;3.80;;
49131;SDS011;35149;51.196;6.204;2022-07-23T09:16:13;4.40;;;3.42;;
49131;SDS011;35149;51.196;6.204;2022-07-23T09:18:43;4.57;;;4.03;;
49131;SDS011;35149;51.196;6.204;2022-07-23T09:23:44;4.60;;;4.15;;
49131;SDS011;35149;51.196;6.204;2022-07-23T09:28:50;9.07;;;4.28;;
49131;SDS011;35149;51.196;6.204;2022-07-23T09:31:20;4.65;;;3.95;;
49131;SDS011;35149;51.196;6.204;2022-07-23T09:33:47;4.50;;;3.95;;
49131;SDS011;35149;51.196;6.204;2022-07-23T09:36:14;5.25;;;3.28;;
49131;SDS011;35149;51.196;6.204;2022-07-23T09:38:48;6.28;;;3.75;;
49131;SDS011;35149;51.196;6.204;2022-07-23T09:41:16;3.60;;;3.25;;
49131;SDS011;35149;51.196;6.204;2022-07-23T09:43:43;4.18;;;3.10;;
49131;SDS011;35149;51.196;6.204;2022-07-23T09:46:20;4.65;;;2.90;;
49131;SDS011;35149;51.196;6.204;2022-07-23T09:48:54;4.78;;;3.60;;
49131;SDS011;35149;51.196;6.204;2022-07-23T09:51:25;3.42;;;3.13;;
49131;SDS011;35149;51.196;6.204;2022-07-23T09:53:51;3.38;;;3.08;;
49131;SDS011;35149;51.196;6.204;2022-07-23T09:56:18;6.03;;;3.38;;
49131;SDS011;35149;51.196;6.204;2022-07-23T09:58:52;4.88;;;3.15;;
49131;SDS011;35149;51.196;6.204;2022-07-23T10:01:55;4.53;;;3.15;;
49131;SDS011;35149;51.196;6.204;2022-07-23T10:04:23;3.60;;;2.35;;
49131;SDS011;35149;51.196;6.204;2022-07-23T10:07:10;3.05;;;2.20;;
49131;SDS011;35149;51.196;6.204;2022-07-23T10:09:55;3.28;;;2.60;;
49131;SDS011;35149;51.196;6.204;2022-07-23T10:12:56;2.70;;;2.50;;
49131;SDS011;35149;51.196;6.204;2022-07-23T10:15:26;3.15;;;2.65;;
49131;SDS011;35149;51.196;6.204;2022-07-23T10:17:53;3.00;;;2.78;;
49131;SDS011;35149;51.196;6.204;2022-07-23T10:20:21;2.75;;;2.53;;
49131;SDS011;35149;51.196;6.204;2022-07-23T10:25:32;2.47;;;2.20;;
49131;SDS011;35149;51.196;6.204;2022-07-23T10:30:41;2.47;;;2.25;;
49131;SDS011;35149;51.196;6.204;2022-07-23T10:39:11;3.25;;;2.88;;
49131;SDS011;35149;51.196;6.204;2022-07-23T10:41:43;3.38;;;2.42;;
49131;SDS011;35149;51.196;6.204;2022-07-23T10:49:49;4.05;;;2.20;;
49131;SDS011;35149;51.196;6.204;2022-07-23T10:52:17;3.03;;;2.08;;
49131;SDS011;35149;51.196;6.204;2022-07-23T10:54:49;3.17;;;2.00;;
49131;SDS011;35149;51.196;6.204;2022-07-23T10:57:48;4.93;;;2.38;;
49131;SDS011;35149;51.196;6.204;2022-07-23T11:00:22;3.00;;;1.75;;
49131;SDS011;35149;51.196;6.204;2022-07-23T11:02:52;5.45;;;2.65;;
49131;SDS011;35149;51.196;6.204;2022-07-23T11:05:21;3.15;;;2.20;;
49131;SDS011;35149;51.196;6.204;2022-07-23T11:24:11;2.00;;;1.88;;
49131;SDS011;35149;51.196;6.204;2022-07-23T11:36:58;1.90;;;1.50;;
49131;SDS011;35149;51.196;6.204;2022-07-23T11:39:27;2.53;;;1.90;;
49131;SDS011;35149;51.196;6.204;2022-07-23T11:41:54;2.15;;;1.95;;
49131;SDS011;35149;51.196;6.204;2022-07-23T11:44:29;2.22;;;2.03;;
49131;SDS011;35149;51.196;6.204;2022-07-23T11:47:02;1.85;;;1.70;;
49131;SDS011;35149;51.196;6.204;2022-07-23T11:49:30;2.03;;;1.70;;
49131;SDS011;35149;51.196;6.204;2022-07-23T11:55:14;3.30;;;2.40;;
49131;SDS011;35149;51.196;6.204;2022-07-23T11:57:37;1.63;;;1.52;;
49131;SDS011;35149;51.196;6.204;2022-07-23T12:02:41;1.60;;;1.50;;
49131;SDS011;35149;51.196;6.204;2022-07-23T12:05:13;4.90;;;2.75;;
49131;SDS011;35149;51.196;6.204;2022-07-23T12:07:49;2.83;;;2.13;;
49131;SDS011;35149;51.196;6.204;2022-07-23T12:10:22;2.13;;;1.92;;
49131;SDS011;35149;51.196;6.204;2022-07-23T12:13:03;2.17;;;1.92;;
49131;SDS011;35149;51.196;6.204;2022-07-23T12:15:33;1.98;;;1.88;;
49131;SDS011;35149;51.196;6.204;2022-07-23T12:18:06;2.03;;;1.90;;
49131;SDS011;35149;51.196;6.204;2022-07-23T12:20:35;2.50;;;1.77;;
49131;SDS011;35149;51.196;6.204;2022-07-23T12:23:07;1.95;;;1.85;;
49131;SDS011;35149;51.196;6.204;2022-07-23T12:25:36;2.65;;;1.80;;
49131;SDS011;35149;51.196;6.204;2022-07-23T12:28:08;1.70;;;1.60;;
49131;SDS011;35149;51.196;6.204;2022-07-23T12:30:38;1.73;;;1.63;;
49131;SDS011;35149;51.196;6.204;2022-07-23T12:33:10;2.38;;;1.77;;
49131;SDS011;35149;51.196;6.204;2022-07-23T12:35:41;1.70;;;1.60;;
49131;SDS011;35149;51.196;6.204;2022-07-23T12:38:12;2.70;;;1.70;;
49131;SDS011;35149;51.196;6.204;2022-07-23T12:43:24;4.30;;;1.80;;
49131;SDS011;35149;51.196;6.204;2022-07-23T12:51:19;2.10;;;1.40;;
49131;SDS011;35149;51.196;6.204;2022-07-23T12:54:09;1.92;;;1.77;;
49131;SDS011;35149;51.196;6.204;2022-07-23T12:56:36;2.47;;;2.03;;
49131;SDS011;35149;51.196;6.204;2022-07-23T12:59:08;1.95;;;1.85;;
49131;SDS011;35149;51.196;6.204;2022-07-23T13:01:41;2.03;;;1.83;;
49131;SDS011;35149;51.196;6.204;2022-07-23T13:04:15;1.98;;;1.73;;
49131;SDS011;35149;51.196;6.204;2022-07-23T13:06:48;1.70;;;1.60;;
49131;SDS011;35149;51.196;6.204;2022-07-23T13:09:21;1.95;;;1.63;;
49131;SDS011;35149;51.196;6.204;2022-07-23T13:11:51;2.90;;;1.88;;
49131;SDS011;35149;51.196;6.204;2022-07-23T13:14:22;2.42;;;1.98;;
49131;SDS011;35149;51.196;6.204;2022-07-23T13:16:52;2.78;;;1.52;;
49131;SDS011;35149;51.196;6.204;2022-07-23T13:19:22;1.77;;;1.67;;
49131;SDS011;35149;51.196;6.204;2022-07-23T13:21:51;2.20;;;1.90;;
49131;SDS011;35149;51.196;6.204;2022-07-23T13:24:18;2.15;;;1.90;;
49131;SDS011;35149;51.196;6.204;2022-07-23T13:26:46;1.90;;;1.60;;
49131;SDS011;35149;51.196;6.204;2022-07-23T13:29:15;2.63;;;1.75;;
49131;SDS011;35149;51.196;6.204;2022-07-23T13:31:42;1.70;;;1.40;;
49131;SDS011;35149;51.196;6.204;2022-07-23T13:34:11;1.58;;;1.48;;
49131;SDS011;35149;51.196;6.204;2022-07-23T13:36:38;1.65;;;1.55;;
49131;SDS011;35149;51.196;6.204;2022-07-23T13:39:05;4.53;;;1.95;;
49131;SDS011;35149;51.196;6.204;2022-07-23T13:41:52;2.03;;;1.45;;
49131;SDS011;35149;51.196;6.204;2022-07-23T13:44:19;4.45;;;1.45;;
49131;SDS011;35149;51.196;6.204;2022-07-23T13:46:48;2.40;;;1.60;;
49131;SDS011;35149;51.196;6.204;2022-07-23T13:49:15;2.25;;;1.73;;
49131;SDS011;35149;51.196;6.204;2022-07-23T13:51:44;1.35;;;1.30;;
49131;SDS011;35149;51.196;6.204;2022-07-23T13:54:11;1.75;;;1.65;;
49131;SDS011;35149;51.196;6.204;2022-07-23T13:56:39;1.98;;;1.48;;
49131;SDS011;35149;51.196;6.204;2022-07-23T13:59:06;1.30;;;1.30;;
49131;SDS011;35149;51.196;6.204;2022-07-23T14:01:33;1.35;;;1.25;;
49131;SDS011;35149;51.196;6.204;2022-07-23T14:04:20;4.38;;;1.42;;
49131;SDS011;35149;51.196;6.204;2022-07-23T14:06:47;1.40;;;1.30;;
49131;SDS011;35149;51.196;6.204;2022-07-23T14:09:18;1.60;;;1.20;;
49131;SDS011;35149;51.196;6.204;2022-07-23T14:11:45;3.33;;;1.20;;
49131;SDS011;35149;51.196;6.204;2022-07-23T14:14:12;1.83;;;1.30;;
49131;SDS011;35149;51.196;6.204;2022-07-23T14:16:40;1.50;;;1.40;;
49131;SDS011;35149;51.196;6.204;2022-07-23T14:19:07;6.57;;;2.35;;
49131;SDS011;35149;51.196;6.204;2022-07-23T14:21:34;1.30;;;1.20;;
49131;SDS011;35149;51.196;6.204;2022-07-23T14:24:01;9.30;;;2.10;;
49131;SDS011;35149;51.196;6.204;2022-07-23T14:26:28;4.57;;;1.73;;
49131;SDS011;35149;51.196;6.204;2022-07-23T14:28:55;1.40;;;1.10;;
49131;SDS011;35149;51.196;6.204;2022-07-23T14:31:23;2.97;;;1.48;;
49131;SDS011;35149;51.196;6.204;2022-07-23T14:33:51;3.97;;;1.52;;
49131;SDS011;35149;51.196;6.204;2022-07-23T14:36:19;2.03;;;1.42;;
49131;SDS011;35149;51.196;6.204;2022-07-23T14:38:46;1.13;;;1.00;;
49131;SDS011;35149;51.196;6.204;2022-07-23T14:41:13;1.35;;;1.25;;
49131;SDS011;35149;51.196;6.204;2022-07-23T14:43:41;1.30;;;1.13;;
49131;SDS011;35149;51.196;6.204;2022-07-23T14:46:09;1.60;;;1.50;;
49131;SDS011;35149;51.196;6.204;2022-07-23T14:48:37;1.52;;;1.33;;
49131;SDS011;35149;51.196;6.204;2022-07-23T14:51:05;1.00;;;1.00;;
49131;SDS011;35149;51.196;6.204;2022-07-23T14:53:31;1.38;;;1.27;;
49131;SDS011;35149;51.196;6.204;2022-07-23T14:55:58;1.38;;;1.27;;
49131;SDS011;35149;51.196;6.204;2022-07-23T14:58:25;2.97;;;1.48;;
49131;SDS011;35149;51.196;6.204;2022-07-23T15:00:52;2.20;;;1.38;;
49131;SDS011;35149;51.196;6.204;2022-07-23T15:03:18;1.70;;;1.60;;
49131;SDS011;35149;51.196;6.204;2022-07-23T15:05:45;3.25;;;1.40;;
49131;SDS011;35149;51.196;6.204;2022-07-23T15:08:12;1.73;;;1.63;;
49131;SDS011;35149;51.196;6.204;2022-07-23T15:10:39;1.70;;;1.60;;
49131;SDS011;35149;51.196;6.204;2022-07-23T15:13:06;1.35;;;1.33;;
49131;SDS011;35149;51.196;6.204;2022-07-23T15:15:33;3.42;;;1.40;;
49131;SDS011;35149;51.196;6.204;2022-07-23T15:18:00;2.15;;;1.67;;
49131;SDS011;35149;51.196;6.204;2022-07-23T15:20:27;1.75;;;1.60;;
49131;SDS011;35149;51.196;6.204;2022-07-23T15:23:06;1.30;;;1.30;;
49131;SDS011;35149;51.196;6.204;2022-07-23T15:25:35;1.67;;;1.58;;
49131;SDS011;35149;51.196;6.204;2022-07-23T15:28:03;1.90;;;1.80;;
49131;SDS011;35149;51.196;6.204;2022-07-23T15:30:33;1.58;;;1.48;;
49131;SDS011;35149;51.196;6.204;2022-07-23T15:33:02;2.33;;;1.90;;
49131;SDS011;35149;51.196;6.204;2022-07-23T15:35:30;2.05;;;1.83;;
49131;SDS011;35149;51.196;6.204;2022-07-23T15:37:57;1.63;;;1.52;;
49131;SDS011;35149;51.196;6.204;2022-07-23T15:40:24;1.80;;;1.70;;
49131;SDS011;35149;51.196;6.204;2022-07-23T15:42:52;1.55;;;1.45;;
49131;SDS011;35149;51.196;6.204;2022-07-23T15:45:18;2.17;;;2.00;;
49131;SDS011;35149;51.196;6.204;2022-07-23T15:47:46;1.85;;;1.73;;
49131;SDS011;35149;51.196;6.204;2022-07-23T15:50:15;2.08;;;1.60;;
49131;SDS011;35149;51.196;6.204;2022-07-23T15:52:42;1.80;;;1.50;;
49131;SDS011;35149;51.196;6.204;2022-07-23T15:55:10;1.67;;;1.58;;
49131;SDS011;35149;51.196;6.204;2022-07-23T15:57:42;1.95;;;1.45;;
49131;SDS011;35149;51.196;6.204;2022-07-23T16:00:10;2.03;;;1.90;;
49131;SDS011;35149;51.196;6.204;2022-07-23T16:02:37;1.90;;;1.60;;
49131;SDS011;35149;51.196;6.204;2022-07-23T16:05:04;2.60;;;1.63;;
49131;SDS011;35149;51.196;6.204;2022-07-23T16:07:31;1.98;;;1.88;;
49131;SDS011;35149;51.196;6.204;2022-07-23T16:10:04;2.03;;;1.70;;
49131;SDS011;35149;51.196;6.204;2022-07-23T16:12:31;1.70;;;1.60;;
49131;SDS011;35149;51.196;6.204;2022-07-23T16:14:58;1.67;;;1.58;;
49131;SDS011;35149;51.196;6.204;2022-07-23T16:17:32;3.80;;;1.70;;
49131;SDS011;35149;51.196;6.204;2022-07-23T16:19:58;3.35;;;1.80;;